Sanford, Michigan
Current Conditions -  °F | °C
As of 9:52 PM on Monday 20 Oct 2014 (Local Time) from KIKW Reporting Station
Overcast Overcast  
Wind Chill: 50°   Ceiling: 2600
Heat Index: 50°   Visibility: 10mi
Dew Point: 43°   Wind: 5mph
Humidity: 76%   Direction: 310°NW
Pressure: 29.89"   Gusts: NA
Location:  43.67°N, 84.38°W
Report Text: KIKW 210152Z AUTO 31004KT 10SM BKN026 OVC050 10/06 A2989 RMK AO2 T01010061
Loading
Personal Weather Stations






























Interactive Weather Map
Tropical Storm Tracking
New forecast layout! Learn more

10-Day Weather Forecast

Advertisements
Track Severe Weather on mobile